sensor_id;sensor_type;location;lat;lon;timestamp;pressure;altitude;pressure_sealevel;temperature;humidity
26539;BME280;14205;43.200;24.170;2022-08-19T00:00:37;99488.38;;;24.03;54.47
26539;BME280;14205;43.200;24.170;2022-08-19T00:03:03;99489.72;;;24.05;54.46
26539;BME280;14205;43.200;24.170;2022-08-19T00:05:29;99487.03;;;24.00;54.87
26539;BME280;14205;43.200;24.170;2022-08-19T00:07:55;99497.22;;;23.98;55.29
26539;BME280;14205;43.200;24.170;2022-08-19T00:10:21;99488.56;;;23.86;55.64
26539;BME280;14205;43.200;24.170;2022-08-19T00:12:47;99493.81;;;23.67;56.56
26539;BME280;14205;43.200;24.170;2022-08-19T00:15:15;99490.97;;;23.42;57.28
26539;BME280;14205;43.200;24.170;2022-08-19T00:17:43;99487.34;;;23.22;58.40
26539;BME280;14205;43.200;24.170;2022-08-19T00:20:17;99498.09;;;23.27;58.05
26539;BME280;14205;43.200;24.170;2022-08-19T00:22:44;99499.00;;;23.06;58.88
26539;BME280;14205;43.200;24.170;2022-08-19T00:25:10;99509.44;;;22.81;59.60
26539;BME280;14205;43.200;24.170;2022-08-19T00:27:35;99501.50;;;22.86;59.53
26539;BME280;14205;43.200;24.170;2022-08-19T00:30:03;99504.81;;;22.72;60.30
26539;BME280;14205;43.200;24.170;2022-08-19T00:32:29;99501.66;;;22.54;60.95
26539;BME280;14205;43.200;24.170;2022-08-19T00:34:54;99504.06;;;22.50;61.08
26539;BME280;14205;43.200;24.170;2022-08-19T00:37:24;99508.88;;;22.53;60.87
26539;BME280;14205;43.200;24.170;2022-08-19T00:39:51;99504.53;;;22.47;61.38
26539;BME280;14205;43.200;24.170;2022-08-19T00:42:18;99508.84;;;22.48;61.43
26539;BME280;14205;43.200;24.170;2022-08-19T00:44:44;99510.97;;;22.46;61.29
26539;BME280;14205;43.200;24.170;2022-08-19T00:47:09;99519.03;;;22.51;61.26
26539;BME280;14205;43.200;24.170;2022-08-19T00:49:41;99499.25;;;22.52;61.32
26539;BME280;14205;43.200;24.170;2022-08-19T00:52:18;99510.44;;;22.49;61.22
26539;BME280;14205;43.200;24.170;2022-08-19T00:54:45;99501.72;;;22.33;61.99
26539;BME280;14205;43.200;24.170;2022-08-19T00:57:17;99507.59;;;22.35;61.90
26539;BME280;14205;43.200;24.170;2022-08-19T00:59:46;99502.31;;;22.39;61.71
26539;BME280;14205;43.200;24.170;2022-08-19T01:02:14;99502.94;;;22.46;61.44
26539;BME280;14205;43.200;24.170;2022-08-19T01:04:39;99501.38;;;22.50;61.51
26539;BME280;14205;43.200;24.170;2022-08-19T01:07:05;99495.59;;;22.58;61.61
26539;BME280;14205;43.200;24.170;2022-08-19T01:09:31;99494.25;;;22.61;61.68
26539;BME280;14205;43.200;24.170;2022-08-19T01:11:56;99497.75;;;22.61;61.29
26539;BME280;14205;43.200;24.170;2022-08-19T01:14:22;99498.25;;;22.58;61.18
26539;BME280;14205;43.200;24.170;2022-08-19T01:16:49;99500.97;;;22.63;61.19
26539;BME280;14205;43.200;24.170;2022-08-19T01:19:37;99499.66;;;22.66;61.52
26539;BME280;14205;43.200;24.170;2022-08-19T01:22:46;99511.22;;;22.24;63.07
26539;BME280;14205;43.200;24.170;2022-08-19T01:24:52;99512.19;;;21.97;64.38
26539;BME280;14205;43.200;24.170;2022-08-19T01:27:17;99508.63;;;21.70;65.33
26539;BME280;14205;43.200;24.170;2022-08-19T01:29:44;99506.94;;;21.64;65.63
26539;BME280;14205;43.200;24.170;2022-08-19T01:32:12;99517.38;;;21.33;66.79
26539;BME280;14205;43.200;24.170;2022-08-19T01:34:38;99512.06;;;21.33;67.02
26539;BME280;14205;43.200;24.170;2022-08-19T01:37:11;99513.81;;;21.28;66.91
26539;BME280;14205;43.200;24.170;2022-08-19T01:39:38;99513.41;;;21.35;66.24
26539;BME280;14205;43.200;24.170;2022-08-19T01:42:05;99512.97;;;21.38;66.02
26539;BME280;14205;43.200;24.170;2022-08-19T01:44:32;99513.34;;;21.47;66.03
26539;BME280;14205;43.200;24.170;2022-08-19T01:46:58;99519.34;;;21.54;65.76
26539;BME280;14205;43.200;24.170;2022-08-19T01:49:24;99517.41;;;21.49;66.07
26539;BME280;14205;43.200;24.170;2022-08-19T01:51:52;99510.50;;;21.53;66.13
26539;BME280;14205;43.200;24.170;2022-08-19T01:54:21;99513.34;;;21.47;66.40
26539;BME280;14205;43.200;24.170;2022-08-19T01:56:47;99516.69;;;21.54;66.51
26539;BME280;14205;43.200;24.170;2022-08-19T01:59:17;99518.34;;;21.60;66.15
26539;BME280;14205;43.200;24.170;2022-08-19T02:01:44;99518.69;;;21.63;66.06
26539;BME280;14205;43.200;24.170;2022-08-19T02:04:10;99510.78;;;21.52;66.38
26539;BME280;14205;43.200;24.170;2022-08-19T02:06:35;99521.34;;;21.47;66.26
26539;BME280;14205;43.200;24.170;2022-08-19T02:09:03;99515.53;;;21.33;66.90
26539;BME280;14205;43.200;24.170;2022-08-19T02:11:31;99516.41;;;21.23;67.40
26539;BME280;14205;43.200;24.170;2022-08-19T02:14:04;99515.28;;;21.19;67.63
26539;BME280;14205;43.200;24.170;2022-08-19T02:16:31;99519.88;;;21.23;67.60
26539;BME280;14205;43.200;24.170;2022-08-19T02:18:57;99531.13;;;21.25;67.75
26539;BME280;14205;43.200;24.170;2022-08-19T02:21:26;99540.03;;;21.31;67.46
26539;BME280;14205;43.200;24.170;2022-08-19T02:23:51;99528.56;;;21.30;67.38
26539;BME280;14205;43.200;24.170;2022-08-19T02:26:17;99543.75;;;21.30;67.42
26539;BME280;14205;43.200;24.170;2022-08-19T02:28:43;99540.03;;;21.31;67.24
26539;BME280;14205;43.200;24.170;2022-08-19T02:31:11;99540.59;;;21.16;67.62
26539;BME280;14205;43.200;24.170;2022-08-19T02:33:37;99544.22;;;21.10;67.83
26539;BME280;14205;43.200;24.170;2022-08-19T02:36:04;99542.78;;;21.03;68.38
26539;BME280;14205;43.200;24.170;2022-08-19T02:38:30;99541.41;;;21.00;68.53
26539;BME280;14205;43.200;24.170;2022-08-19T02:41:04;99526.91;;;20.80;69.51
26539;BME280;14205;43.200;24.170;2022-08-19T02:43:31;99534.63;;;20.65;69.97
26539;BME280;14205;43.200;24.170;2022-08-19T02:45:57;99545.78;;;20.63;70.07
26539;BME280;14205;43.200;24.170;2022-08-19T02:48:24;99545.44;;;20.59;70.21
26539;BME280;14205;43.200;24.170;2022-08-19T02:50:52;99550.63;;;20.65;69.78
26539;BME280;14205;43.200;24.170;2022-08-19T02:53:22;99550.47;;;20.72;69.21
26539;BME280;14205;43.200;24.170;2022-08-19T02:55:49;99543.53;;;20.71;69.09
26539;BME280;14205;43.200;24.170;2022-08-19T02:58:15;99558.59;;;20.77;68.98
26539;BME280;14205;43.200;24.170;2022-08-19T03:00:47;99549.38;;;20.84;68.34
26539;BME280;14205;43.200;24.170;2022-08-19T03:03:12;99558.38;;;20.95;67.42
26539;BME280;14205;43.200;24.170;2022-08-19T03:05:39;99563.22;;;20.98;67.64
26539;BME280;14205;43.200;24.170;2022-08-19T03:08:05;99558.94;;;20.97;67.47
26539;BME280;14205;43.200;24.170;2022-08-19T03:10:32;99556.03;;;20.98;67.86
26539;BME280;14205;43.200;24.170;2022-08-19T03:12:57;99554.63;;;20.96;68.24
26539;BME280;14205;43.200;24.170;2022-08-19T03:15:23;99557.16;;;20.86;68.55
26539;BME280;14205;43.200;24.170;2022-08-19T03:17:48;99561.56;;;20.80;69.10
26539;BME280;14205;43.200;24.170;2022-08-19T03:20:13;99560.75;;;20.80;69.05
26539;BME280;14205;43.200;24.170;2022-08-19T03:22:39;99563.28;;;20.86;68.98
26539;BME280;14205;43.200;24.170;2022-08-19T03:25:05;99561.53;;;20.92;68.90
26539;BME280;14205;43.200;24.170;2022-08-19T03:27:30;99567.66;;;20.92;68.65
26539;BME280;14205;43.200;24.170;2022-08-19T03:29:56;99558.94;;;20.97;68.70
26539;BME280;14205;43.200;24.170;2022-08-19T03:32:21;99562.91;;;20.94;68.90
26539;BME280;14205;43.200;24.170;2022-08-19T03:34:47;99577.03;;;20.95;68.92
26539;BME280;14205;43.200;24.170;2022-08-19T03:37:13;99573.47;;;20.89;68.99
26539;BME280;14205;43.200;24.170;2022-08-19T03:39:40;99580.56;;;20.84;69.10
26539;BME280;14205;43.200;24.170;2022-08-19T03:42:06;99576.75;;;20.80;69.33
26539;BME280;14205;43.200;24.170;2022-08-19T03:44:32;99581.72;;;20.88;68.84
26539;BME280;14205;43.200;24.170;2022-08-19T03:46:59;99581.22;;;20.91;68.93
26539;BME280;14205;43.200;24.170;2022-08-19T03:49:28;99578.13;;;20.66;70.17
26539;BME280;14205;43.200;24.170;2022-08-19T03:51:56;99590.88;;;20.64;70.39
26539;BME280;14205;43.200;24.170;2022-08-19T03:54:24;99581.75;;;20.49;71.08
26539;BME280;14205;43.200;24.170;2022-08-19T03:56:51;99583.53;;;20.32;71.88
26539;BME280;14205;43.200;24.170;2022-08-19T03:59:20;99591.25;;;20.33;71.90
26539;BME280;14205;43.200;24.170;2022-08-19T04:01:46;99584.31;;;20.32;71.86
26539;BME280;14205;43.200;24.170;2022-08-19T04:04:12;99591.25;;;20.33;71.93
26539;BME280;14205;43.200;24.170;2022-08-19T04:06:38;99585.22;;;20.38;71.54
26539;BME280;14205;43.200;24.170;2022-08-19T04:09:07;99607.13;;;20.40;71.46
26539;BME280;14205;43.200;24.170;2022-08-19T04:11:56;99600.19;;;20.39;71.57
26539;BME280;14205;43.200;24.170;2022-08-19T04:14:28;99597.97;;;20.47;71.53
26539;BME280;14205;43.200;24.170;2022-08-19T04:16:55;99599.47;;;20.43;71.69
26539;BME280;14205;43.200;24.170;2022-08-19T04:19:21;99606.75;;;20.48;71.53
26539;BME280;14205;43.200;24.170;2022-08-19T04:21:49;99602.09;;;20.66;71.05
26539;BME280;14205;43.200;24.170;2022-08-19T04:24:18;99609.13;;;20.72;70.34
26539;BME280;14205;43.200;24.170;2022-08-19T04:26:44;99602.34;;;20.92;69.56
26539;BME280;14205;43.200;24.170;2022-08-19T04:29:13;99616.00;;;20.96;69.23
26539;BME280;14205;43.200;24.170;2022-08-19T04:31:40;99610.56;;;20.91;69.99
26539;BME280;14205;43.200;24.170;2022-08-19T04:34:08;99619.91;;;21.04;69.06
26539;BME280;14205;43.200;24.170;2022-08-19T04:36:37;99623.31;;;21.16;68.45
26539;BME280;14205;43.200;24.170;2022-08-19T04:39:13;99612.56;;;21.28;67.76
26539;BME280;14205;43.200;24.170;2022-08-19T04:41:39;99615.81;;;21.30;68.13
26539;BME280;14205;43.200;24.170;2022-08-19T04:44:23;99619.69;;;21.50;67.69
26539;BME280;14205;43.200;24.170;2022-08-19T04:46:50;99613.06;;;21.69;67.13
26539;BME280;14205;43.200;24.170;2022-08-19T04:49:17;99613.81;;;21.85;66.71
26539;BME280;14205;43.200;24.170;2022-08-19T04:51:45;99613.91;;;21.90;67.02
26539;BME280;14205;43.200;24.170;2022-08-19T04:54:13;99601.34;;;21.91;66.72
26539;BME280;14205;43.200;24.170;2022-08-19T04:56:40;99598.28;;;21.99;66.43
26539;BME280;14205;43.200;24.170;2022-08-19T04:59:06;99604.72;;;22.19;65.65
26539;BME280;14205;43.200;24.170;2022-08-19T05:01:32;99596.72;;;22.40;65.02
26539;BME280;14205;43.200;24.170;2022-08-19T05:04:00;99605.34;;;22.47;64.88
26539;BME280;14205;43.200;24.170;2022-08-19T05:06:26;99601.50;;;22.59;66.95
26539;BME280;14205;43.200;24.170;2022-08-19T05:08:52;99609.16;;;22.72;65.07
26539;BME280;14205;43.200;24.170;2022-08-19T05:11:24;99608.72;;;22.80;64.53
26539;BME280;14205;43.200;24.170;2022-08-19T05:13:51;99610.31;;;22.81;64.11
26539;BME280;14205;43.200;24.170;2022-08-19T05:16:19;99612.97;;;23.02;64.90
26539;BME280;14205;43.200;24.170;2022-08-19T05:18:45;99614.38;;;23.09;64.87
26539;BME280;14205;43.200;24.170;2022-08-19T05:21:29;99622.66;;;23.34;62.88
26539;BME280;14205;43.200;24.170;2022-08-19T05:24:14;99617.75;;;23.52;61.91
26539;BME280;14205;43.200;24.170;2022-08-19T05:26:43;99617.06;;;23.67;60.81
26539;BME280;14205;43.200;24.170;2022-08-19T05:29:13;99620.09;;;23.75;59.92
26539;BME280;14205;43.200;24.170;2022-08-19T05:31:39;99619.25;;;23.70;60.17
26539;BME280;14205;43.200;24.170;2022-08-19T05:34:06;99615.03;;;23.78;60.42
26539;BME280;14205;43.200;24.170;2022-08-19T05:36:41;99618.84;;;23.87;60.71
26539;BME280;14205;43.200;24.170;2022-08-19T05:39:08;99621.91;;;24.06;59.99
26539;BME280;14205;43.200;24.170;2022-08-19T05:41:34;99614.22;;;24.19;59.71
26539;BME280;14205;43.200;24.170;2022-08-19T05:44:04;99615.94;;;24.35;59.64
26539;BME280;14205;43.200;24.170;2022-08-19T05:46:32;99624.53;;;24.37;60.29
26539;BME280;14205;43.200;24.170;2022-08-19T05:48:57;99622.16;;;24.45;59.17
26539;BME280;14205;43.200;24.170;2022-08-19T05:51:24;99624.06;;;24.49;58.94
26539;BME280;14205;43.200;24.170;2022-08-19T05:53:51;99625.94;;;24.49;58.78
26539;BME280;14205;43.200;24.170;2022-08-19T05:56:17;99631.94;;;24.71;56.38
26539;BME280;14205;43.200;24.170;2022-08-19T05:58:44;99619.44;;;24.96;55.54
26539;BME280;14205;43.200;24.170;2022-08-19T06:01:13;99629.72;;;25.23;55.86
26539;BME280;14205;43.200;24.170;2022-08-19T06:03:38;99623.81;;;25.41;54.41
26539;BME280;14205;43.200;24.170;2022-08-19T06:06:05;99629.22;;;25.56;52.56
26539;BME280;14205;43.200;24.170;2022-08-19T06:08:33;99622.22;;;25.75;52.28
26539;BME280;14205;43.200;24.170;2022-08-19T06:11:21;99621.13;;;25.95;52.15
26539;BME280;14205;43.200;24.170;2022-08-19T06:13:50;99613.56;;;26.17;51.28
26539;BME280;14205;43.200;24.170;2022-08-19T06:16:21;99621.06;;;26.30;50.44
26539;BME280;14205;43.200;24.170;2022-08-19T06:18:51;99624.81;;;26.44;49.96
26539;BME280;14205;43.200;24.170;2022-08-19T06:21:19;99628.25;;;26.59;50.20
26539;BME280;14205;43.200;24.170;2022-08-19T06:23:46;99633.28;;;26.75;49.75
26539;BME280;14205;43.200;24.170;2022-08-19T06:26:13;99630.00;;;26.93;49.36
26539;BME280;14205;43.200;24.170;2022-08-19T06:28:39;99633.91;;;27.15;49.33
26539;BME280;14205;43.200;24.170;2022-08-19T06:31:09;99630.84;;;27.31;47.16
26539;BME280;14205;43.200;24.170;2022-08-19T06:33:35;99629.72;;;27.42;47.39
26539;BME280;14205;43.200;24.170;2022-08-19T06:36:02;99638.75;;;27.56;47.18
26539;BME280;14205;43.200;24.170;2022-08-19T06:38:28;99635.69;;;27.72;46.48
26539;BME280;14205;43.200;24.170;2022-08-19T06:41:04;99641.22;;;27.86;46.92
26539;BME280;14205;43.200;24.170;2022-08-19T06:43:29;99638.47;;;27.91;46.83
26539;BME280;14205;43.200;24.170;2022-08-19T06:45:55;99640.16;;;28.15;47.28
26539;BME280;14205;43.200;24.170;2022-08-19T06:48:20;99636.38;;;28.39;45.53
26539;BME280;14205;43.200;24.170;2022-08-19T06:50:46;99632.25;;;28.69;44.45
26539;BME280;14205;43.200;24.170;2022-08-19T06:53:12;99627.56;;;28.57;45.68
26539;BME280;14205;43.200;24.170;2022-08-19T06:55:38;99630.06;;;28.71;44.51
26539;BME280;14205;43.200;24.170;2022-08-19T06:58:04;99634.84;;;28.98;44.48
26539;BME280;14205;43.200;24.170;2022-08-19T07:00:31;99632.81;;;29.13;44.84
26539;BME280;14205;43.200;24.170;2022-08-19T07:02:57;99639.94;;;29.40;43.29
26539;BME280;14205;43.200;24.170;2022-08-19T07:05:23;99625.69;;;29.72;42.04
26539;BME280;14205;43.200;24.170;2022-08-19T07:07:49;99631.50;;;29.78;42.00
26539;BME280;14205;43.200;24.170;2022-08-19T07:10:14;99641.88;;;29.90;41.54
26539;BME280;14205;43.200;24.170;2022-08-19T07:12:40;99626.75;;;30.02;42.02
26539;BME280;14205;43.200;24.170;2022-08-19T07:15:07;99634.63;;;30.30;41.99
26539;BME280;14205;43.200;24.170;2022-08-19T07:17:33;99629.81;;;30.54;41.09
26539;BME280;14205;43.200;24.170;2022-08-19T07:20:03;99629.75;;;30.72;39.68
26539;BME280;14205;43.200;24.170;2022-08-19T07:22:28;99626.44;;;30.75;40.67
26539;BME280;14205;43.200;24.170;2022-08-19T07:24:53;99633.97;;;30.91;42.00
26539;BME280;14205;43.200;24.170;2022-08-19T07:27:19;99636.34;;;31.06;41.96
26539;BME280;14205;43.200;24.170;2022-08-19T07:29:45;99640.63;;;31.34;38.14
26539;BME280;14205;43.200;24.170;2022-08-19T07:32:11;99629.59;;;31.17;38.22
26539;BME280;14205;43.200;24.170;2022-08-19T07:34:37;99637.19;;;31.42;37.06
26539;BME280;14205;43.200;24.170;2022-08-19T07:37:06;99636.38;;;31.41;37.17
26539;BME280;14205;43.200;24.170;2022-08-19T07:39:34;99633.44;;;31.03;38.34
26539;BME280;14205;43.200;24.170;2022-08-19T07:42:04;99634.94;;;31.44;37.20
26539;BME280;14205;43.200;24.170;2022-08-19T07:44:31;99624.22;;;31.04;38.24
26539;BME280;14205;43.200;24.170;2022-08-19T07:46:57;99636.94;;;31.51;37.79
26539;BME280;14205;43.200;24.170;2022-08-19T07:49:24;99638.41;;;31.79;36.33
26539;BME280;14205;43.200;24.170;2022-08-19T07:52:01;99624.25;;;32.04;35.41
26539;BME280;14205;43.200;24.170;2022-08-19T07:54:30;99622.25;;;32.26;35.24
26539;BME280;14205;43.200;24.170;2022-08-19T07:56:56;99632.91;;;32.44;34.78
26539;BME280;14205;43.200;24.170;2022-08-19T07:59:22;99627.84;;;32.21;36.69
26539;BME280;14205;43.200;24.170;2022-08-19T08:01:49;99616.88;;;32.04;35.63
26539;BME280;14205;43.200;24.170;2022-08-19T08:04:16;99613.22;;;32.39;34.83
26539;BME280;14205;43.200;24.170;2022-08-19T08:07:01;99627.16;;;32.84;36.99
26539;BME280;14205;43.200;24.170;2022-08-19T08:09:46;99629.28;;;33.29;32.78
26539;BME280;14205;43.200;24.170;2022-08-19T08:12:14;99621.78;;;33.59;32.04
26539;BME280;14205;43.200;24.170;2022-08-19T08:14:52;99613.28;;;33.78;32.31
26539;BME280;14205;43.200;24.170;2022-08-19T08:17:21;99611.97;;;34.00;31.95
26539;BME280;14205;43.200;24.170;2022-08-19T08:19:47;99611.47;;;34.07;32.42
26539;BME280;14205;43.200;24.170;2022-08-19T08:22:17;99606.44;;;34.26;32.19
26539;BME280;14205;43.200;24.170;2022-08-19T08:25:07;99616.19;;;34.43;31.75
26539;BME280;14205;43.200;24.170;2022-08-19T08:27:42;99616.00;;;34.77;30.62
26539;BME280;14205;43.200;24.170;2022-08-19T08:30:09;99609.72;;;35.05;30.79
26539;BME280;14205;43.200;24.170;2022-08-19T08:32:39;99602.41;;;34.97;30.52
26539;BME280;14205;43.200;24.170;2022-08-19T08:35:06;99609.09;;;34.79;30.75
26539;BME280;14205;43.200;24.170;2022-08-19T08:37:32;99604.53;;;35.20;30.28
26539;BME280;14205;43.200;24.170;2022-08-19T08:39:58;99609.41;;;34.86;30.23
26539;BME280;14205;43.200;24.170;2022-08-19T08:42:32;99602.22;;;34.82;30.67
26539;BME280;14205;43.200;24.170;2022-08-19T08:45:08;99605.03;;;35.14;31.11
26539;BME280;14205;43.200;24.170;2022-08-19T08:47:40;99602.50;;;35.49;30.38
26539;BME280;14205;43.200;24.170;2022-08-19T08:50:18;99596.38;;;35.84;31.38
26539;BME280;14205;43.200;24.170;2022-08-19T08:52:50;99592.38;;;36.14;30.15
26539;BME280;14205;43.200;24.170;2022-08-19T08:55:22;99587.50;;;36.31;29.45
26539;BME280;14205;43.200;24.170;2022-08-19T09:00:28;99587.53;;;36.67;28.80
26539;BME280;14205;43.200;24.170;2022-08-19T09:02:56;99584.91;;;36.46;27.96
26539;BME280;14205;43.200;24.170;2022-08-19T09:05:23;99585.44;;;36.52;29.66
26539;BME280;14205;43.200;24.170;2022-08-19T09:10:37;99584.59;;;37.22;27.62
26539;BME280;14205;43.200;24.170;2022-08-19T09:16:15;99578.72;;;37.47;27.72
26539;BME280;14205;43.200;24.170;2022-08-19T09:21:17;99581.22;;;37.68;26.57
26539;BME280;14205;43.200;24.170;2022-08-19T09:23:42;99578.56;;;37.44;27.63
26539;BME280;14205;43.200;24.170;2022-08-19T09:26:13;99577.22;;;37.50;27.25
26539;BME280;14205;43.200;24.170;2022-08-19T09:28:40;99565.63;;;37.29;27.73
26539;BME280;14205;43.200;24.170;2022-08-19T09:31:09;99567.81;;;36.73;28.75
26539;BME280;14205;43.200;24.170;2022-08-19T09:33:34;99553.06;;;36.42;27.93
26539;BME280;14205;43.200;24.170;2022-08-19T09:36:08;99557.72;;;36.89;28.51
26539;BME280;14205;43.200;24.170;2022-08-19T09:38:35;99557.84;;;37.85;26.77
26539;BME280;14205;43.200;24.170;2022-08-19T09:41:06;99560.97;;;37.99;27.25
26539;BME280;14205;43.200;24.170;2022-08-19T09:43:32;99559.56;;;37.63;29.12
26539;BME280;14205;43.200;24.170;2022-08-19T09:45:59;99558.13;;;37.96;26.13
26539;BME280;14205;43.200;24.170;2022-08-19T09:48:25;99554.72;;;37.72;27.40
26539;BME280;14205;43.200;24.170;2022-08-19T09:50:51;99547.88;;;38.39;26.00
26539;BME280;14205;43.200;24.170;2022-08-19T09:53:16;99549.19;;;38.60;25.62
26539;BME280;14205;43.200;24.170;2022-08-19T09:55:43;99546.41;;;38.90;25.66
26539;BME280;14205;43.200;24.170;2022-08-19T09:58:09;99544.31;;;38.84;25.85
26539;BME280;14205;43.200;24.170;2022-08-19T10:00:37;99543.38;;;39.14;25.11
26539;BME280;14205;43.200;24.170;2022-08-19T10:03:03;99546.22;;;39.18;24.65
26539;BME280;14205;43.200;24.170;2022-08-19T10:05:29;99543.03;;;39.16;25.44
26539;BME280;14205;43.200;24.170;2022-08-19T10:08:14;99537.25;;;39.39;23.99
26539;BME280;14205;43.200;24.170;2022-08-19T10:10:43;99534.34;;;39.51;24.03
26539;BME280;14205;43.200;24.170;2022-08-19T10:13:09;99540.16;;;39.46;23.88
26539;BME280;14205;43.200;24.170;2022-08-19T10:15:35;99527.16;;;38.56;26.33
26539;BME280;14205;43.200;24.170;2022-08-19T10:18:01;99532.88;;;38.82;25.08
26539;BME280;14205;43.200;24.170;2022-08-19T10:20:26;99532.03;;;38.97;25.00
26539;BME280;14205;43.200;24.170;2022-08-19T10:22:52;99526.38;;;38.90;24.75
26539;BME280;14205;43.200;24.170;2022-08-19T10:25:17;99525.25;;;39.28;24.07
26539;BME280;14205;43.200;24.170;2022-08-19T10:27:43;99522.25;;;39.55;25.81
26539;BME280;14205;43.200;24.170;2022-08-19T10:30:09;99509.28;;;39.97;23.89
26539;BME280;14205;43.200;24.170;2022-08-19T10:32:35;99511.84;;;40.31;23.96
26539;BME280;14205;43.200;24.170;2022-08-19T10:35:01;99510.81;;;40.39;24.24
26539;BME280;14205;43.200;24.170;2022-08-19T10:37:27;99508.56;;;40.73;24.01
26539;BME280;14205;43.200;24.170;2022-08-19T10:39:53;99507.13;;;39.65;26.02
26539;BME280;14205;43.200;24.170;2022-08-19T10:42:18;99505.56;;;39.86;25.32
26539;BME280;14205;43.200;24.170;2022-08-19T10:44:44;99510.38;;;39.70;25.49
26539;BME280;14205;43.200;24.170;2022-08-19T10:47:11;99518.03;;;40.47;23.55
26539;BME280;14205;43.200;24.170;2022-08-19T10:49:37;99506.28;;;41.04;22.60
26539;BME280;14205;43.200;24.170;2022-08-19T10:52:22;99510.59;;;41.70;22.56
26539;BME280;14205;43.200;24.170;2022-08-19T10:55:01;99506.78;;;41.85;21.12
26539;BME280;14205;43.200;24.170;2022-08-19T10:57:45;99504.03;;;42.81;20.96
26539;BME280;14205;43.200;24.170;2022-08-19T11:00:11;99505.94;;;43.55;20.52
26539;BME280;14205;43.200;24.170;2022-08-19T11:02:37;99502.06;;;44.18;18.93
26539;BME280;14205;43.200;24.170;2022-08-19T11:05:03;99494.41;;;44.91;18.57
26539;BME280;14205;43.200;24.170;2022-08-19T11:07:29;99476.63;;;44.88;18.14
26539;BME280;14205;43.200;24.170;2022-08-19T11:09:54;99487.03;;;45.49;18.04
26539;BME280;14205;43.200;24.170;2022-08-19T11:12:20;99493.44;;;46.03;17.00
26539;BME280;14205;43.200;24.170;2022-08-19T11:14:45;99483.72;;;46.25;16.77
26539;BME280;14205;43.200;24.170;2022-08-19T11:17:10;99491.72;;;46.96;16.57
26539;BME280;14205;43.200;24.170;2022-08-19T11:19:38;99483.72;;;48.09;16.18
26539;BME280;14205;43.200;24.170;2022-08-19T11:22:07;99487.75;;;47.56;16.07
26539;BME280;14205;43.200;24.170;2022-08-19T11:24:33;99481.28;;;48.56;16.58
26539;BME280;14205;43.200;24.170;2022-08-19T11:27:08;99473.31;;;48.97;14.77
26539;BME280;14205;43.200;24.170;2022-08-19T11:29:39;99482.94;;;49.15;14.27
26539;BME280;14205;43.200;24.170;2022-08-19T11:32:07;99466.59;;;49.48;14.08
26539;BME280;14205;43.200;24.170;2022-08-19T11:34:34;99472.66;;;49.63;13.68
26539;BME280;14205;43.200;24.170;2022-08-19T11:37:01;99466.84;;;50.20;14.23
26539;BME280;14205;43.200;24.170;2022-08-19T11:39:30;99459.91;;;49.62;14.08
26539;BME280;14205;43.200;24.170;2022-08-19T11:41:57;99462.19;;;49.98;13.63
26539;BME280;14205;43.200;24.170;2022-08-19T11:44:24;99452.88;;;48.84;14.21
26539;BME280;14205;43.200;24.170;2022-08-19T11:46:50;99445.97;;;48.27;14.80
26539;BME280;14205;43.200;24.170;2022-08-19T11:49:19;99449.19;;;46.62;15.59
26539;BME280;14205;43.200;24.170;2022-08-19T11:51:45;99447.56;;;46.64;15.53
26539;BME280;14205;43.200;24.170;2022-08-19T11:54:13;99438.47;;;45.20;17.19
26539;BME280;14205;43.200;24.170;2022-08-19T11:56:40;99427.50;;;46.14;16.73
26539;BME280;14205;43.200;24.170;2022-08-19T11:59:06;99426.66;;;46.17;16.73
26539;BME280;14205;43.200;24.170;2022-08-19T12:01:33;99421.41;;;45.82;16.86
26539;BME280;14205;43.200;24.170;2022-08-19T12:03:58;99418.72;;;45.11;17.09
26539;BME280;14205;43.200;24.170;2022-08-19T12:06:29;99417.53;;;45.73;16.74
26539;BME280;14205;43.200;24.170;2022-08-19T12:08:57;99412.44;;;45.00;17.79
26539;BME280;14205;43.200;24.170;2022-08-19T12:11:23;99410.84;;;44.99;19.46
26539;BME280;14205;43.200;24.170;2022-08-19T12:13:49;99408.06;;;45.63;17.22
26539;BME280;14205;43.200;24.170;2022-08-19T12:16:18;99407.91;;;45.84;17.76
26539;BME280;14205;43.200;24.170;2022-08-19T12:18:44;99398.13;;;45.69;17.18
26539;BME280;14205;43.200;24.170;2022-08-19T12:21:12;99397.94;;;45.40;17.69
26539;BME280;14205;43.200;24.170;2022-08-19T12:23:40;99398.06;;;45.76;16.88
26539;BME280;14205;43.200;24.170;2022-08-19T12:26:05;99399.09;;;45.92;16.73
26539;BME280;14205;43.200;24.170;2022-08-19T12:28:31;99398.75;;;45.87;16.95
26539;BME280;14205;43.200;24.170;2022-08-19T12:30:57;99388.19;;;45.72;17.34
26539;BME280;14205;43.200;24.170;2022-08-19T12:33:23;99393.41;;;46.10;17.05
26539;BME280;14205;43.200;24.170;2022-08-19T12:35:51;99391.69;;;46.19;16.50
26539;BME280;14205;43.200;24.170;2022-08-19T12:38:17;99394.25;;;45.57;17.47
26539;BME280;14205;43.200;24.170;2022-08-19T12:40:48;99391.75;;;45.72;16.54
26539;BME280;14205;43.200;24.170;2022-08-19T12:43:15;99389.72;;;45.80;16.10
26539;BME280;14205;43.200;24.170;2022-08-19T12:45:43;99387.44;;;45.64;16.46
26539;BME280;14205;43.200;24.170;2022-08-19T12:48:10;99382.75;;;45.55;16.38
26539;BME280;14205;43.200;24.170;2022-08-19T12:50:39;99387.06;;;45.62;17.61
26539;BME280;14205;43.200;24.170;2022-08-19T12:53:04;99387.84;;;45.59;17.68
26539;BME280;14205;43.200;24.170;2022-08-19T12:55:30;99383.91;;;45.60;16.03
26539;BME280;14205;43.200;24.170;2022-08-19T12:57:55;99386.25;;;45.62;15.98
26539;BME280;14205;43.200;24.170;2022-08-19T13:00:22;99369.53;;;44.34;17.16
26539;BME280;14205;43.200;24.170;2022-08-19T13:02:51;99369.84;;;44.53;16.96
26539;BME280;14205;43.200;24.170;2022-08-19T13:05:20;99373.56;;;43.71;18.05